Time;durP1;ratioP1;P1;durP2;ratioP2;P2;SDS_P1;SDS_P2;PMS_P1;PMS_P2;Temp;Humidity;BMP_temperature;BMP_pressure;BME280_temperature;BME280_humidity;BME280_pressure;Samples;Min_cycle;Max_cycle;Signal;HPM_P1;HPM_P2
2023/03/16 00:01:49;;;;;;;3.17;1.40;;;;;;;2.80;63.64;98008.38;6283934;28;20979;-37
2023/03/16 00:04:51;;;;;;;1.67;1.37;;;;;;;2.84;63.58;98012.28;6288304;28;20236;-36
2023/03/16 00:07:54;;;;;;;2.90;1.50;;;;;;;2.78;62.97;98014.84;6281458;28;20260;-36
2023/03/16 00:10:56;;;;;;;2.33;1.60;;;;;;;2.67;63.66;98023.19;6288875;28;20739;-36
2023/03/16 00:13:58;;;;;;;4.10;2.07;;;;;;;2.52;63.18;98007.44;6285930;28;20623;-36
2023/03/16 00:17:00;;;;;;;1.70;1.60;;;;;;;2.51;62.93;97998.72;6284336;28;20994;-36
2023/03/16 00:20:05;;;;;;;1.80;1.57;;;;;;;2.82;63.00;98037.16;6285375;28;20236;-36
2023/03/16 00:23:07;;;;;;;2.53;1.50;;;;;;;2.76;62.34;98043.97;6282332;28;20607;-35
2023/03/16 00:26:11;;;;;;;2.43;1.60;;;;;;;2.81;62.40;98048.69;6282884;28;20338;-36
2023/03/16 00:29:14;;;;;;;1.87;1.60;;;;;;;2.58;62.66;98004.88;6264214;28;20237;-36
2023/03/16 00:32:18;;;;;;;1.90;1.50;;;;;;;2.75;62.28;98039.69;6288077;28;20244;-36
2023/03/16 00:35:22;;;;;;;1.77;1.50;;;;;;;2.68;63.25;98040.59;6263209;28;20282;-36
2023/03/16 00:38:24;;;;;;;2.30;1.63;;;;;;;2.55;63.70;98030.72;6283771;28;20594;-37
2023/03/16 00:41:27;;;;;;;1.43;1.20;;;;;;;2.51;63.24;98046.06;6264600;28;20230;-36
2023/03/16 00:44:30;;;;;;;1.90;1.50;;;;;;;2.26;63.67;97997.34;6262114;28;20726;-36
2023/03/16 00:47:33;;;;;;;1.63;1.30;;;;;;;2.26;63.88;98003.41;6247620;28;20721;-37
2023/03/16 00:50:36;;;;;;;1.60;1.50;;;;;;;2.56;63.87;98045.50;6264311;28;20239;-36
2023/03/16 00:53:40;;;;;;;1.83;1.50;;;;;;;2.54;64.27;98047.50;6262956;28;20733;-37
2023/03/16 00:56:42;;;;;;;1.93;1.40;;;;;;;2.48;63.94;98056.13;6281565;28;20629;-36
2023/03/16 00:59:45;;;;;;;2.00;1.83;;;;;;;2.50;63.98;98056.75;6282792;28;20331;-36
2023/03/16 01:02:47;;;;;;;1.40;1.30;;;;;;;2.51;63.78;98071.53;6285578;28;20244;-37
2023/03/16 01:05:49;;;;;;;3.63;1.70;;;;;;;2.51;63.59;98061.00;6283839;28;20244;-36
2023/03/16 01:08:51;;;;;;;2.20;1.63;;;;;;;2.53;63.55;98069.53;6263181;28;20242;-37
2023/03/16 01:11:53;;;;;;;1.50;1.40;;;;;;;2.50;63.43;98069.88;6267498;28;20371;-36
2023/03/16 01:14:55;;;;;;;2.10;1.60;;;;;;;2.43;62.55;98080.31;6277881;28;20328;-36
2023/03/16 01:18:00;;;;;;;2.10;1.50;;;;;;;2.21;63.01;98060.16;6281299;28;20247;-36
2023/03/16 01:21:05;;;;;;;1.63;1.53;;;;;;;2.26;63.63;98063.88;6263726;28;20884;-36
2023/03/16 01:24:08;;;;;;;3.73;1.83;;;;;;;2.25;63.16;98078.03;6266256;28;20221;-36
2023/03/16 01:27:12;;;;;;;3.20;1.77;;;;;;;2.20;63.45;98076.94;6262070;28;20322;-36
2023/03/16 01:30:14;;;;;;;2.30;2.10;;;;;;;2.20;63.09;98077.75;6260699;28;20212;-36
2023/03/16 01:33:17;;;;;;;2.77;1.97;;;;;;;1.93;63.33;98062.56;6285023;28;20300;-36
2023/03/16 01:36:20;;;;;;;2.27;2.00;;;;;;;2.13;63.31;98084.72;6261284;28;20282;-37
2023/03/16 01:39:33;;;;;;;3.43;1.90;;;;;;;2.16;62.97;98084.34;6277925;28;20236;-36
2023/03/16 01:42:46;;;;;;;2.10;1.87;;;;;;;2.12;63.32;98093.59;6271066;28;20252;-36
2023/03/16 01:46:16;;;;;;;2.30;1.80;;;;;;;1.92;63.91;98077.53;6280715;28;20308;-36
2023/03/16 01:49:31;;;;;;;2.47;1.77;;;;;;;1.94;64.12;98093.91;6258742;28;20238;-36
2023/03/16 01:52:37;;;;;;;2.00;1.90;;;;;;;1.99;64.36;98096.00;6261687;28;20236;-36
2023/03/16 01:55:40;;;;;;;3.13;2.30;;;;;;;1.99;64.71;98103.88;6283246;28;20788;-37
2023/03/16 01:58:44;;;;;;;2.40;1.97;;;;;;;1.95;64.73;98097.34;6282604;28;20820;-36
2023/03/16 02:01:47;;;;;;;2.20;2.00;;;;;;;1.99;64.81;98101.25;6259465;28;20238;-37
2023/03/16 02:05:03;;;;;;;2.57;2.00;;;;;;;1.95;64.42;98099.97;6264715;28;20610;-36
2023/03/16 02:08:08;;;;;;;2.20;2.00;;;;;;;1.86;64.44;98103.66;6267719;28;20726;-36
2023/03/16 02:11:11;;;;;;;3.37;2.47;;;;;;;1.68;64.38;98073.25;6263015;28;20236;-36
2023/03/16 02:14:20;;;;;;;5.23;2.57;;;;;;;1.80;64.66;98107.81;6265327;28;20233;-37
2023/03/16 02:17:28;;;;;;;2.60;2.37;;;;;;;1.71;64.55;98104.41;6262469;28;20225;-37
2023/03/16 02:21:00;;;;;;;3.30;2.33;;;;;;;1.68;64.18;98106.59;6264942;28;20349;-37
2023/03/16 02:24:03;;;;;;;3.00;2.30;;;;;;;1.53;64.60;98103.91;6261955;28;20623;-36
2023/03/16 02:27:11;;;;;;;2.97;2.13;;;;;;;1.43;64.89;98109.38;6263505;28;20361;-36
2023/03/16 02:30:15;;;;;;;3.47;2.63;;;;;;;1.40;66.23;98114.13;6279850;28;20218;-37
2023/03/16 02:33:35;;;;;;;5.13;3.17;;;;;;;1.07;66.17;98080.19;6263245;28;20267;-36
2023/03/16 02:36:40;;;;;;;3.87;2.37;;;;;;;1.31;65.67;98123.03;6260859;28;20292;-36
2023/03/16 02:39:42;;;;;;;3.23;2.53;;;;;;;1.39;65.97;98117.75;6264124;28;20237;-37
2023/03/16 02:42:55;;;;;;;3.37;2.37;;;;;;;1.53;65.85;98127.53;6257715;28;20623;-37
2023/03/16 02:46:02;;;;;;;2.33;2.13;;;;;;;1.60;65.97;98119.75;6262604;28;20337;-36
2023/03/16 02:49:15;;;;;;;2.80;2.50;;;;;;;1.71;65.44;98124.59;6271428;28;20243;-37
2023/03/16 02:52:17;;;;;;;3.30;2.47;;;;;;;1.76;65.99;98125.72;6271995;28;20685;-37
2023/03/16 02:55:20;;;;;;;3.00;2.70;;;;;;;1.74;64.52;98125.09;6286493;28;20233;-36
2023/03/16 02:58:22;;;;;;;4.87;2.97;;;;;;;1.80;64.60;98136.69;6288096;28;20234;-36
2023/03/16 03:01:24;;;;;;;3.13;2.70;;;;;;;1.85;64.59;98129.09;6285686;28;20435;-36
2023/03/16 03:04:28;;;;;;;4.20;2.80;;;;;;;1.78;63.63;98136.06;6266357;28;20238;-36
2023/03/16 03:07:30;;;;;;;3.77;2.90;;;;;;;1.73;64.50;98141.84;6279003;28;20267;-36
2023/03/16 03:10:37;;;;;;;2.90;2.33;;;;;;;1.54;64.79;98131.78;6266592;28;20377;-37
2023/03/16 03:13:43;;;;;;;2.93;2.40;;;;;;;1.66;64.24;98158.44;6267779;28;20815;-36
2023/03/16 03:16:51;;;;;;;3.90;2.73;;;;;;;1.67;64.29;98153.00;6270045;28;20712;-37
2023/03/16 03:19:53;;;;;;;3.73;2.90;;;;;;;1.45;64.21;98159.88;6288921;28;20237;-36
2023/03/16 03:22:55;;;;;;;4.80;3.03;;;;;;;1.42;64.04;98164.66;6269388;28;20225;-37
2023/03/16 03:25:58;;;;;;;3.93;2.73;;;;;;;1.39;65.16;98172.88;6266764;28;20244;-36
2023/03/16 03:29:01;;;;;;;3.50;3.20;;;;;;;1.42;64.71;98172.53;6265902;28;22098;-36
2023/03/16 03:32:04;;;;;;;3.17;2.83;;;;;;;1.48;64.45;98170.03;6268870;28;20246;-36
2023/03/16 03:35:07;;;;;;;3.93;3.00;;;;;;;1.39;64.21;98175.50;6266481;28;20239;-36
2023/03/16 03:38:10;;;;;;;3.50;3.10;;;;;;;1.26;64.39;98195.22;6265834;28;20747;-43
2023/03/16 03:41:14;;;;;;;3.60;3.07;;;;;;;1.03;64.63;98155.81;6268498;28;20308;-36
2023/03/16 03:44:16;;;;;;;3.40;3.03;;;;;;;1.32;64.09;98196.34;6265860;28;20232;-36
2023/03/16 03:47:19;;;;;;;4.60;3.67;;;;;;;1.20;64.65;98197.72;6270051;28;20242;-36
2023/03/16 03:50:21;;;;;;;4.73;3.20;;;;;;;1.25;64.67;98198.03;6280396;28;20230;-35
2023/03/16 03:53:43;;;;;;;4.17;3.33;;;;;;;1.24;64.62;98194.59;6267024;28;20596;-36
2023/03/16 03:56:53;;;;;;;3.60;3.27;;;;;;;1.26;64.82;98195.22;6268292;28;20365;-36
2023/03/16 03:59:56;;;;;;;3.37;3.07;;;;;;;1.32;64.83;98195.53;6268120;28;20710;-35
2023/03/16 04:03:13;;;;;;;4.17;3.60;;;;;;;1.26;64.67;98199.66;6282002;28;20266;-35
2023/03/16 04:06:18;;;;;;;5.83;3.80;;;;;;;1.00;64.19;98171.06;6263462;28;20215;-35
2023/03/16 04:09:20;;;;;;;4.27;3.07;;;;;;;1.17;64.34;98208.53;6264734;28;20246;-35
2023/03/16 04:12:23;;;;;;;4.77;3.70;;;;;;;0.74;64.86;98137.22;6263899;28;20655;-36
2023/03/16 04:15:26;;;;;;;3.40;2.83;;;;;;;1.11;65.88;98203.97;6267409;28;20273;-35
2023/03/16 04:18:37;;;;;;;5.50;3.33;;;;;;;1.09;65.78;98214.66;6264165;28;20238;-36
2023/03/16 04:21:40;;;;;;;4.40;3.87;;;;;;;1.13;64.57;98215.09;6267543;28;20236;-36
2023/03/16 04:24:43;;;;;;;4.07;3.63;;;;;;;0.90;65.23;98194.03;6273243;28;20434;-35
2023/03/16 04:27:46;;;;;;;4.23;3.30;;;;;;;1.11;65.55;98209.22;6283198;28;20365;-36
2023/03/16 04:30:50;;;;;;;3.73;3.20;;;;;;;1.15;66.88;98215.78;6265060;28;20234;-36
2023/03/16 04:33:58;;;;;;;3.77;3.27;;;;;;;1.13;66.51;98223.78;6284751;28;20237;-36
2023/03/16 04:37:01;;;;;;;4.10;3.70;;;;;;;1.15;66.38;98223.66;6282348;28;20234;-36
2023/03/16 04:40:14;;;;;;;3.87;3.30;;;;;;;1.08;66.32;98222.66;6265557;28;20345;-36
2023/03/16 04:43:20;;;;;;;4.37;2.97;;;;;;;1.11;65.91;98220.53;6267255;28;20233;-36
2023/03/16 04:46:25;;;;;;;4.67;3.30;;;;;;;1.15;65.56;98232.34;6267652;28;20233;-36
2023/03/16 04:49:28;;;;;;;3.97;3.40;;;;;;;1.05;65.23;98231.72;6289778;28;20366;-36
2023/03/16 04:52:30;;;;;;;4.57;3.83;;;;;;;0.90;66.02;98226.31;6282916;28;20770;-37
2023/03/16 04:55:35;;;;;;;4.57;3.43;;;;;;;0.95;65.06;98245.00;6263608;28;20226;-36
2023/03/16 04:58:38;;;;;;;3.40;3.10;;;;;;;0.72;66.39;98216.03;6248234;28;20646;-36
2023/03/16 05:01:42;;;;;;;5.23;3.77;;;;;;;0.71;66.73;98239.78;6264441;28;20280;-35
2023/03/16 05:04:45;;;;;;;4.73;3.90;;;;;;;0.71;66.10;98242.41;6260603;28;20226;-37
2023/03/16 05:07:48;;;;;;;4.60;3.53;;;;;;;0.69;66.20;98253.06;6266430;28;20371;-36
2023/03/16 05:10:56;;;;;;;5.50;3.83;;;;;;;0.73;65.69;98259.59;6263466;28;20304;-36
2023/03/16 05:14:00;;;;;;;5.43;3.80;;;;;;;0.49;65.98;98234.25;6259987;28;20227;-36
2023/03/16 05:17:05;;;;;;;6.50;3.90;;;;;;;0.60;65.50;98243.56;6268034;28;20785;-36
2023/03/16 05:20:11;;;;;;;5.23;3.87;;;;;;;0.45;65.65;98229.50;6264238;28;20237;-36
2023/03/16 05:23:30;;;;;;;3.90;3.50;;;;;;;0.77;65.53;98258.28;6272402;28;20310;-37
2023/03/16 05:26:37;;;;;;;5.90;3.57;;;;;;;0.59;65.00;98220.97;6262986;28;20595;-36
2023/03/16 05:29:45;;;;;;;5.87;4.10;;;;;;;0.86;65.09;98268.78;6280317;28;20801;-36
2023/03/16 05:32:47;;;;;;;5.67;4.07;;;;;;;0.72;65.34;98254.53;6263841;28;20234;-36
2023/03/16 05:35:51;;;;;;;4.63;4.13;;;;;;;0.74;65.65;98265.69;6261155;28;20222;-36
2023/03/16 05:38:53;;;;;;;4.90;4.10;;;;;;;0.66;65.82;98265.69;6262627;28;20641;-36
2023/03/16 05:42:05;;;;;;;4.87;3.93;;;;;;;0.68;66.00;98267.16;6277973;28;20265;-36
2023/03/16 05:45:16;;;;;;;5.13;3.50;;;;;;;0.64;66.31;98267.63;6277214;28;20222;-35
2023/03/16 05:48:38;;;;;;;5.03;3.50;;;;;;;0.62;66.29;98274.84;6258440;28;20242;-36
2023/03/16 05:51:42;;;;;;;4.43;4.00;;;;;;;0.62;66.23;98274.84;6262679;28;20337;-36
2023/03/16 05:54:44;;;;;;;3.87;3.47;;;;;;;0.66;66.98;98281.41;6261680;28;20242;-36
2023/03/16 05:57:46;;;;;;;6.07;4.10;;;;;;;0.54;67.37;98283.53;6282740;28;20546;-35
2023/03/16 06:00:54;;;;;;;6.97;4.27;;;;;;;0.61;66.93;98284.53;6270327;28;20804;-36
2023/03/16 06:04:02;;;;;;;9.27;4.40;;;;;;;0.66;66.55;98290.09;6262089;28;20717;-36
2023/03/16 06:07:08;;;;;;;5.17;3.93;;;;;;;0.69;66.52;98295.03;6262329;28;20241;-35
2023/03/16 06:10:11;;;;;;;7.30;4.30;;;;;;;0.67;66.17;98272.56;6262429;28;20240;-36
2023/03/16 06:13:14;;;;;;;6.53;4.33;;;;;;;0.93;65.25;98304.66;6283130;28;20254;-35
2023/03/16 06:16:17;;;;;;;4.40;4.00;;;;;;;0.95;65.12;98307.97;6266213;28;20314;-35
2023/03/16 06:19:19;;;;;;;7.83;4.27;;;;;;;1.01;64.19;98309.09;6263872;28;20229;-35
2023/03/16 06:22:26;;;;;;;5.80;4.40;;;;;;;1.06;64.15;98312.06;6276475;28;20237;-36
2023/03/16 06:25:28;;;;;;;8.03;4.93;;;;;;;1.08;64.56;98315.31;6285496;28;20235;-36
2023/03/16 06:28:30;;;;;;;6.30;4.37;;;;;;;1.11;64.25;98319.41;6267039;28;20238;-35
2023/03/16 06:31:33;;;;;;;6.47;4.10;;;;;;;0.89;64.12;98289.44;6267044;28;20230;-35
2023/03/16 06:34:36;;;;;;;5.90;4.50;;;;;;;1.14;64.45;98319.09;6271997;28;20646;-36
2023/03/16 06:37:40;;;;;;;7.37;4.90;;;;;;;1.20;64.05;98327.13;6267960;28;20307;-36
2023/03/16 06:41:14;;;;;;;5.93;4.60;;;;;;;1.32;63.40;98327.59;6244494;28;20230;-36
2023/03/16 06:44:21;;;;;;;6.63;5.23;;;;;;;1.35;63.03;98340.38;6282274;28;20260;-36
2023/03/16 06:47:45;;;;;;;6.63;4.63;;;;;;;1.10;63.11;98302.88;6266643;28;20226;-36
2023/03/16 06:50:48;;;;;;;6.47;4.07;;;;;;;1.20;62.98;98308.75;6270004;28;20234;-36
2023/03/16 06:53:55;;;;;;;6.03;4.17;;;;;;;1.56;62.76;98350.34;6267371;28;20346;-36
2023/03/16 06:56:58;;;;;;;5.57;4.20;;;;;;;1.61;62.40;98355.09;6270515;28;20242;-36
2023/03/16 07:00:03;;;;;;;4.83;3.73;;;;;;;1.31;62.47;98307.56;6267604;28;20868;-35
2023/03/16 07:03:05;;;;;;;4.97;4.20;;;;;;;1.63;62.27;98359.22;6286823;28;20220;-35
2023/03/16 07:06:08;;;;;;;5.43;3.87;;;;;;;1.69;61.57;98358.53;6266502;28;20253;-36
2023/03/16 07:09:11;;;;;;;7.50;4.40;;;;;;;1.70;61.88;98356.72;6270273;28;20586;-35
2023/03/16 07:12:13;;;;;;;6.00;4.00;;;;;;;1.81;61.58;98361.59;6281122;28;20210;-36
2023/03/16 07:15:16;;;;;;;5.73;4.07;;;;;;;1.81;61.42;98365.03;6285119;28;20220;-35
2023/03/16 07:18:19;;;;;;;5.03;4.03;;;;;;;1.81;60.82;98364.22;6264070;28;20227;-35
2023/03/16 07:21:22;;;;;;;7.40;3.90;;;;;;;1.59;61.02;98330.81;6286587;28;20734;-36
2023/03/16 07:24:25;;;;;;;5.37;4.00;;;;;;;1.69;60.83;98339.31;6270358;28;20327;-36
2023/03/16 07:27:28;;;;;;;6.07;3.97;;;;;;;1.96;60.03;98372.22;6283730;28;20266;-36
2023/03/16 07:30:32;;;;;;;5.37;3.87;;;;;;;1.95;59.73;98360.09;6263320;28;20228;-36
2023/03/16 07:33:35;;;;;;;5.87;4.57;;;;;;;2.13;59.38;98371.19;6260938;28;20264;-36
2023/03/16 07:36:40;;;;;;;5.90;4.27;;;;;;;2.20;59.08;98373.94;6280938;28;20246;-36
2023/03/16 07:39:42;;;;;;;5.77;3.80;;;;;;;2.03;58.88;98325.91;6271637;28;20600;-36
2023/03/16 07:42:50;;;;;;;6.33;3.70;;;;;;;2.32;58.95;98351.53;6267459;28;20323;-35
2023/03/16 07:46:12;;;;;;;5.30;3.93;;;;;;;2.82;57.75;98361.59;6264938;28;20235;-35
2023/03/16 07:49:15;;;;;;;5.30;3.73;;;;;;;3.30;55.91;98333.22;6263517;28;20236;-35
2023/03/16 07:52:19;;;;;;;5.07;3.70;;;;;;;4.17;52.81;98305.38;6266948;28;20231;-35
2023/03/16 07:55:22;;;;;;;4.97;3.60;;;;;;;5.63;50.80;98355.88;6267640;28;20670;-35
2023/03/16 07:58:26;;;;;;;3.20;2.90;;;;;;;7.60;45.56;98321.34;6264395;28;20717;-36
2023/03/16 08:01:28;;;;;;;3.77;2.97;;;;;;;11.01;36.38;98344.75;6283699;28;20238;-36
2023/03/16 08:04:31;;;;;;;4.97;3.00;;;;;;;14.32;30.16;98328.81;6266659;28;20230;-36
2023/03/16 08:07:34;;;;;;;3.63;2.97;;;;;;;16.68;26.46;98359.91;6266203;28;20240;-37
2023/03/16 08:10:46;;;;;;;3.50;2.73;;;;;;;18.87;23.82;98363.53;6268004;28;20242;-36
2023/03/16 08:13:53;;;;;;;2.50;2.30;;;;;;;21.17;21.77;98368.22;6287631;28;20671;-36
2023/03/16 08:16:55;;;;;;;3.83;2.50;;;;;;;22.56;18.71;98371.00;6289595;28;20582;-37
2023/03/16 08:19:59;;;;;;;3.35;2.40;;;;;;;23.16;17.71;98380.88;6267992;28;20444;-37
2023/03/16 08:23:02;;;;;;;3.47;2.70;;;;;;;22.90;17.80;98378.69;6263099;28;20237;-37
2023/03/16 08:26:11;;;;;;;4.03;2.30;;;;;;;23.65;17.10;98392.78;6260939;28;20226;-37
2023/03/16 08:29:13;;;;;;;4.60;2.30;;;;;;;24.45;16.12;98394.50;6264208;28;20233;-37
2023/03/16 08:32:17;;;;;;;4.40;2.50;;;;;;;24.45;16.08;98399.97;6282413;28;20217;-37
2023/03/16 08:35:20;;;;;;;2.67;2.03;;;;;;;24.33;16.53;98401.63;6260016;28;20283;-37
2023/03/16 08:38:22;;;;;;;2.40;1.70;;;;;;;22.60;17.30;98399.13;6263103;28;20677;-37
2023/03/16 08:41:29;;;;;;;3.53;2.00;;;;;;;22.05;16.48;98388.22;6263826;28;20228;-36
2023/03/16 08:44:35;;;;;;;3.17;2.03;;;;;;;22.76;16.41;98369.75;6264283;28;20230;-37
2023/03/16 08:47:41;;;;;;;2.00;1.87;;;;;;;23.54;16.89;98391.38;6287814;28;20244;-36
2023/03/16 08:50:45;;;;;;;2.33;1.60;;;;;;;22.47;16.95;98391.00;6284180;28;20307;-36
2023/03/16 08:53:47;;;;;;;2.87;1.60;;;;;;;19.42;19.78;98392.03;6281362;28;20304;-37
2023/03/16 08:56:50;;;;;;;2.80;2.00;;;;;;;15.85;22.35;98385.84;6283807;28;20260;-36
2023/03/16 08:59:52;;;;;;;7.33;2.60;;;;;;;13.65;25.98;98399.41;6281896;28;20229;-36
2023/03/16 09:02:55;;;;;;;2.83;1.90;;;;;;;12.14;27.00;98366.91;6259100;28;20233;-36
2023/03/16 09:06:02;;;;;;;5.03;1.87;;;;;;;11.12;29.31;98388.47;6283062;28;20229;-37
2023/03/16 09:09:04;;;;;;;3.83;2.00;;;;;;;10.62;30.60;98380.78;6285273;28;20226;-36
2023/03/16 09:12:07;;;;;;;3.87;1.87;;;;;;;10.26;30.90;98390.41;6280248;28;20217;-35
2023/03/16 09:15:12;;;;;;;4.27;2.07;;;;;;;9.21;31.70;98360.25;6282232;28;20346;-36
2023/03/16 09:18:15;;;;;;;4.23;2.07;;;;;;;9.24;33.10;98399.69;6260788;28;20342;-35
2023/03/16 09:21:17;;;;;;;4.87;2.00;;;;;;;9.10;33.36;98398.97;6280339;28;20203;-35
2023/03/16 09:24:19;;;;;;;4.37;1.90;;;;;;;9.12;33.52;98388.16;6280918;28;20233;-35
2023/03/16 09:27:21;;;;;;;2.83;1.80;;;;;;;8.64;33.18;98354.91;6284138;28;20385;-35
2023/03/16 09:30:24;;;;;;;2.80;1.67;;;;;;;8.94;31.72;98402.16;6277600;28;20244;-36
2023/03/16 09:33:30;;;;;;;2.33;1.90;;;;;;;9.08;31.56;98400.22;6282115;28;20830;-36
2023/03/16 09:36:33;;;;;;;3.73;1.90;;;;;;;9.17;31.95;98389.13;6278679;28;20252;-36
2023/03/16 09:39:35;;;;;;;4.60;1.80;;;;;;;8.62;31.91;98279.09;6280472;28;20237;-36
2023/03/16 09:42:53;;;;;;;3.60;2.27;;;;;;;9.03;31.97;98395.56;6262895;28;20336;-36
2023/03/16 09:46:20;;;;;;;4.20;2.40;;;;;;;9.09;32.73;98385.91;6280478;28;20274;-36
2023/03/16 09:49:26;;;;;;;3.23;1.93;;;;;;;8.91;32.15;98376.81;6279658;28;20230;-37
2023/03/16 09:52:52;;;;;;;3.90;2.13;;;;;;;8.31;33.55;98401.97;6283070;28;20317;-36
2023/03/16 09:56:03;;;;;;;4.77;1.90;;;;;;;8.35;32.95;98387.28;6262991;28;20769;-36
2023/03/16 09:59:16;;;;;;;5.33;1.90;;;;;;;8.66;33.16;98382.06;6281510;28;20739;-36
2023/03/16 10:02:30;;;;;;;4.17;1.83;;;;;;;8.86;31.89;98384.59;6283551;28;20237;-38
2023/03/16 10:05:34;;;;;;;2.03;1.67;;;;;;;9.36;31.06;98384.69;6280747;28;20230;-37
2023/03/16 10:08:39;;;;;;;2.77;1.60;;;;;;;9.56;30.14;98353.44;6280606;28;20235;-37
2023/03/16 10:11:47;;;;;;;1.90;1.33;;;;;;;10.32;29.49;98383.38;6280677;28;20580;-37
2023/03/16 10:15:12;;;;;;;2.80;1.60;;;;;;;10.44;28.70;98388.78;6281688;28;20857;-37
2023/03/16 10:18:28;;;;;;;3.63;1.77;;;;;;;10.39;28.64;98359.34;6283446;28;20234;-37
2023/03/16 10:21:37;;;;;;;2.80;1.93;;;;;;;9.81;29.02;98340.09;6281322;28;20246;-36
2023/03/16 10:24:49;;;;;;;2.70;1.50;;;;;;;10.26;29.63;98390.41;6279024;28;20231;-36
2023/03/16 10:27:51;;;;;;;1.40;1.30;;;;;;;10.32;28.08;98368.22;6277131;28;20932;-37
2023/03/16 10:30:56;;;;;;;3.10;1.60;;;;;;;10.61;27.26;98381.00;6280192;28;20709;-36
2023/03/16 10:34:05;;;;;;;2.80;1.60;;;;;;;10.94;26.28;98385.91;6283005;28;20227;-36
2023/03/16 10:37:12;;;;;;;5.00;1.53;;;;;;;11.26;26.48;98395.25;6279495;28;20762;-37
2023/03/16 10:40:15;;;;;;;4.13;1.60;;;;;;;11.66;26.51;98388.47;6278848;28;20310;-36
2023/03/16 10:43:17;;;;;;;2.20;1.60;;;;;;;11.70;26.80;98368.28;6281014;28;20238;-36
2023/03/16 10:46:19;;;;;;;2.57;1.60;;;;;;;11.39;26.86;98374.75;6279330;28;20722;-36
2023/03/16 10:49:47;;;;;;;2.17;1.40;;;;;;;11.36;26.21;98365.34;6278430;28;20244;-37
2023/03/16 10:52:52;;;;;;;3.73;1.50;;;;;;;11.58;26.11;98377.09;6267376;28;20235;-36
2023/03/16 10:55:58;;;;;;;2.70;1.40;;;;;;;11.68;26.48;98381.06;6281949;28;20292;-36
2023/03/16 10:59:01;;;;;;;4.53;1.63;;;;;;;11.68;25.88;98381.88;6279553;28;20840;-36
2023/03/16 11:02:22;;;;;;;3.20;1.60;;;;;;;11.34;25.36;98384.25;6282130;28;20237;-36
2023/03/16 11:05:31;;;;;;;2.27;1.50;;;;;;;11.18;25.82;98379.59;6281258;28;20241;-36
2023/03/16 11:08:36;;;;;;;3.53;1.60;;;;;;;11.54;27.08;98385.81;6285969;28;20237;-37
2023/03/16 11:11:39;;;;;;;1.83;1.53;;;;;;;11.52;26.01;98375.34;6282188;28;20540;-37
2023/03/16 11:14:44;;;;;;;3.13;1.60;;;;;;;11.70;24.64;98373.63;6265940;28;20698;-36
2023/03/16 11:17:52;;;;;;;1.60;1.20;;;;;;;11.60;24.58;98344.84;6284213;28;20268;-37
2023/03/16 11:20:57;;;;;;;3.67;1.60;;;;;;;11.36;24.82;98312.00;6270818;28;20785;-37
2023/03/16 11:24:03;;;;;;;3.33;1.40;;;;;;;11.34;24.54;98348.78;6287149;28;20754;-37
2023/03/16 11:27:17;;;;;;;2.27;1.20;;;;;;;10.98;25.40;98371.03;6286616;28;20316;-36
2023/03/16 11:30:34;;;;;;;1.83;1.20;;;;;;;11.15;24.96;98376.56;6286790;28;20455;-36
2023/03/16 11:33:36;;;;;;;2.63;1.50;;;;;;;11.07;25.10;98375.03;6284161;28;20240;-36
2023/03/16 11:37:11;;;;;;;2.57;1.30;;;;;;;11.01;24.49;98370.59;6285915;28;20490;-36
2023/03/16 11:40:29;;;;;;;2.23;1.10;;;;;;;10.99;24.44;98359.38;6283098;28;20372;-37
2023/03/16 11:43:43;;;;;;;3.50;1.60;;;;;;;10.83;24.15;98356.28;6291121;28;20796;-36
2023/03/16 11:46:53;;;;;;;2.37;1.40;;;;;;;10.94;24.46;98357.38;6283132;28;20612;-37
2023/03/16 11:50:00;;;;;;;1.27;1.00;;;;;;;10.97;25.16;98356.91;6279984;28;20237;-37
2023/03/16 11:53:21;;;;;;;2.47;1.30;;;;;;;10.57;24.46;98296.19;6285376;28;20235;-37
2023/03/16 11:57:13;;;;;;;2.13;1.13;;;;;;;10.59;24.71;98341.28;6283326;28;20771;-37
2023/03/16 12:00:52;;;;;;;4.80;1.60;;;;;;;10.08;24.72;98340.59;6157737;28;20262;-36
2023/03/16 12:03:58;;;;;;;3.40;1.50;;;;;;;9.65;26.38;98343.31;6157790;28;20239;-35
2023/03/16 12:07:00;;;;;;;2.63;1.13;;;;;;;9.77;26.02;98330.91;6136424;28;20300;-35
2023/03/16 12:10:23;;;;;;;3.03;1.10;;;;;;;10.08;26.32;98337.13;6157566;28;20721;-36
2023/03/16 12:13:46;;;;;;;2.37;1.30;;;;;;;10.23;26.30;98320.78;6161487;28;20496;-36
2023/03/16 12:17:12;;;;;;;3.03;1.17;;;;;;;10.19;25.44;98325.72;6160365;28;20684;-36
2023/03/16 12:20:28;;;;;;;1.73;1.33;;;;;;;10.33;26.05;98315.75;6147770;28;20265;-36
2023/03/16 12:23:54;;;;;;;2.00;1.50;;;;;;;10.10;25.03;98313.78;6155768;28;20231;-36
2023/03/16 12:26:58;;;;;;;3.40;1.47;;;;;;;10.31;25.18;98309.88;6157924;28;20416;-36
2023/03/16 12:30:24;;;;;;;2.50;1.57;;;;;;;9.88;25.24;98310.75;6155906;28;20354;-36
2023/03/16 12:33:52;;;;;;;1.73;1.40;;;;;;;10.07;25.10;98304.38;6156409;28;20624;-36
2023/03/16 12:37:13;;;;;;;3.80;1.17;;;;;;;10.22;24.99;98308.50;6255384;28;20617;-36
2023/03/16 12:40:33;;;;;;;4.07;1.60;;;;;;;10.40;24.40;98300.53;6281544;28;20971;-36
2023/03/16 12:43:59;;;;;;;2.70;1.30;;;;;;;10.35;24.06;98297.72;6281725;28;20236;-36
2023/03/16 12:47:22;;;;;;;2.63;1.30;;;;;;;9.36;23.77;98179.97;6280800;28;20281;-36
2023/03/16 12:50:25;;;;;;;1.43;1.13;;;;;;;10.00;24.31;98289.50;6264357;28;20845;-36
2023/03/16 12:53:50;;;;;;;1.47;1.37;;;;;;;10.31;23.38;98286.72;6282757;28;20277;-36
2023/03/16 12:57:01;;;;;;;1.10;1.00;;;;;;;10.40;23.77;98276.56;6260173;28;20247;-36
2023/03/16 13:00:07;;;;;;;2.83;0.93;;;;;;;10.57;23.54;98282.06;6281239;28;20247;-36
2023/03/16 13:03:21;;;;;;;3.50;1.47;;;;;;;10.69;23.72;98280.25;6278681;28;20218;-36
2023/03/16 13:06:24;;;;;;;3.03;1.30;;;;;;;10.78;24.52;98281.53;6278103;28;20267;-36
2023/03/16 13:09:30;;;;;;;2.57;1.60;;;;;;;10.46;24.58;98262.34;6278738;28;21026;-37
2023/03/16 13:12:39;;;;;;;2.53;1.50;;;;;;;10.36;24.71;98271.91;6283653;28;20234;-37
2023/03/16 13:15:46;;;;;;;2.37;1.37;;;;;;;10.35;23.77;98279.09;6284436;28;20609;-36
2023/03/16 13:18:48;;;;;;;2.97;1.60;;;;;;;10.19;24.03;98272.47;6264137;28;20328;-35
2023/03/16 13:22:02;;;;;;;2.27;1.37;;;;;;;10.18;23.67;98270.06;6281304;28;20240;-36
2023/03/16 13:25:14;;;;;;;1.13;1.03;;;;;;;10.30;22.92;98281.63;6282300;28;20270;-37
2023/03/16 13:28:16;;;;;;;1.20;1.10;;;;;;;10.48;22.64;98272.75;6285454;28;20276;-37
2023/03/16 13:31:34;;;;;;;2.53;1.13;;;;;;;10.30;22.82;98257.66;6280728;28;20239;-37
2023/03/16 13:34:47;;;;;;;2.83;1.10;;;;;;;10.37;23.32;98277.00;6280912;28;20318;-36
2023/03/16 13:37:50;;;;;;;3.77;1.50;;;;;;;10.29;23.30;98267.47;6280291;28;20334;-36
2023/03/16 13:40:55;;;;;;;2.10;1.23;;;;;;;10.20;22.57;98270.66;6281686;28;21003;-36
2023/03/16 13:43:57;;;;;;;2.67;1.73;;;;;;;10.09;23.99;98258.88;6285343;28;20237;-36
2023/03/16 13:47:04;;;;;;;2.00;1.60;;;;;;;10.09;24.57;98272.19;6243977;28;20394;-36
2023/03/16 13:50:12;;;;;;;1.63;1.33;;;;;;;10.18;24.64;98270.06;6278868;28;20239;-37
2023/03/16 13:53:22;;;;;;;2.90;1.40;;;;;;;10.13;24.67;98254.75;6284469;28;20236;-36
2023/03/16 13:56:28;;;;;;;1.70;1.23;;;;;;;10.33;24.09;98260.66;6281906;28;20678;-37
2023/03/16 13:59:30;;;;;;;2.17;1.20;;;;;;;10.37;24.31;98261.03;6280660;28;20243;-37
2023/03/16 14:02:41;;;;;;;1.50;1.23;;;;;;;10.13;24.61;98268.06;6275436;28;20385;-36
2023/03/16 14:05:44;;;;;;;2.13;1.57;;;;;;;9.86;25.33;98262.25;6281009;28;20279;-36
2023/03/16 14:08:50;;;;;;;2.00;1.47;;;;;;;9.91;25.13;98258.94;6279459;28;21002;-36
2023/03/16 14:11:53;;;;;;;1.60;1.27;;;;;;;10.03;24.79;98252.63;6277286;28;20231;-36
2023/03/16 14:14:55;;;;;;;2.70;1.53;;;;;;;9.84;24.27;98232.38;6280158;28;20225;-35
2023/03/16 14:18:21;;;;;;;1.20;1.10;;;;;;;9.88;24.92;98257.50;6282131;28;20235;-37
2023/03/16 14:21:28;;;;;;;1.40;1.10;;;;;;;9.80;23.52;98249.81;6278559;28;20232;-36
2023/03/16 14:24:37;;;;;;;1.63;1.07;;;;;;;9.75;23.82;98255.84;6281212;28;20683;-36
2023/03/16 14:27:39;;;;;;;2.57;1.40;;;;;;;9.68;23.92;98246.28;6281350;28;20611;-36
2023/03/16 14:31:00;;;;;;;1.20;1.10;;;;;;;9.79;24.11;98254.34;6281008;28;20245;-36
2023/03/16 14:34:07;;;;;;;8.37;1.67;;;;;;;9.82;23.96;98232.63;6279625;28;20238;-36
2023/03/16 14:37:15;;;;;;;1.20;1.10;;;;;;;9.83;24.52;98247.53;6284020;28;20239;-36
2023/03/16 14:40:21;;;;;;;1.47;1.37;;;;;;;9.71;24.58;98238.69;6280235;28;20236;-38
2023/03/16 14:43:37;;;;;;;2.07;1.40;;;;;;;9.69;25.47;98242.59;6282762;28;20232;-37
2023/03/16 14:46:44;;;;;;;2.83;1.53;;;;;;;9.53;25.55;98241.34;6284464;28;20261;-37
2023/03/16 14:49:46;;;;;;;1.90;1.37;;;;;;;9.44;25.33;98240.81;6285227;28;20643;-37